sensor_id;sensor_type;location;lat;lon;timestamp;temperature;humidity
31991;DHT22;18508;49.386;8.370;2023-01-29T00:03:37;0.80;1.00
31991;DHT22;18508;49.386;8.370;2023-01-29T00:06:20;0.90;1.00
31991;DHT22;18508;49.386;8.370;2023-01-29T00:13:46;1.20;1.00
31991;DHT22;18508;49.386;8.370;2023-01-29T00:18:45;0.90;1.00
31991;DHT22;18508;49.386;8.370;2023-01-29T00:21:17;0.80;1.00
31991;DHT22;18508;49.386;8.370;2023-01-29T00:23:48;-1.70;1.00
31991;DHT22;18508;49.386;8.370;2023-01-29T00:26:18;0.50;1.00
31991;DHT22;18508;49.386;8.370;2023-01-29T00:28:48;0.80;1.00
31991;DHT22;18508;49.386;8.370;2023-01-29T00:31:18;0.40;1.00
31991;DHT22;18508;49.386;8.370;2023-01-29T00:33:49;0.40;1.00
31991;DHT22;18508;49.386;8.370;2023-01-29T00:36:20;0.40;1.00
31991;DHT22;18508;49.386;8.370;2023-01-29T00:38:53;0.30;1.00
31991;DHT22;18508;49.386;8.370;2023-01-29T00:41:26;0.40;1.00
31991;DHT22;18508;49.386;8.370;2023-01-29T00:44:13;0.10;1.00
31991;DHT22;18508;49.386;8.370;2023-01-29T00:46:59;-0.10;1.00
31991;DHT22;18508;49.386;8.370;2023-01-29T00:49:27;-0.10;1.00
31991;DHT22;18508;49.386;8.370;2023-01-29T00:51:57;-0.10;1.00
31991;DHT22;18508;49.386;8.370;2023-01-29T00:54:43;-0.10;1.00
31991;DHT22;18508;49.386;8.370;2023-01-29T00:57:12;0.10;1.00
31991;DHT22;18508;49.386;8.370;2023-01-29T00:59:40;0.00;1.00
31991;DHT22;18508;49.386;8.370;2023-01-29T01:02:08;-0.10;1.00
31991;DHT22;18508;49.386;8.370;2023-01-29T01:07:24;-0.40;1.00
31991;DHT22;18508;49.386;8.370;2023-01-29T01:12:39;-0.40;1.00
31991;DHT22;18508;49.386;8.370;2023-01-29T01:15:08;-0.40;1.00
31991;DHT22;18508;49.386;8.370;2023-01-29T01:17:37;-1.10;1.00
31991;DHT22;18508;49.386;8.370;2023-01-29T01:20:06;-0.40;1.00
31991;DHT22;18508;49.386;8.370;2023-01-29T01:22:37;-0.40;1.00
31991;DHT22;18508;49.386;8.370;2023-01-29T01:25:06;-0.70;1.00
31991;DHT22;18508;49.386;8.370;2023-01-29T01:30:09;-0.60;1.00
31991;DHT22;18508;49.386;8.370;2023-01-29T01:32:38;-0.40;1.00
31991;DHT22;18508;49.386;8.370;2023-01-29T01:35:09;-0.10;1.00
31991;DHT22;18508;49.386;8.370;2023-01-29T01:37:39;-0.80;1.00
31991;DHT22;18508;49.386;8.370;2023-01-29T01:40:13;-0.40;1.00
31991;DHT22;18508;49.386;8.370;2023-01-29T01:42:46;-0.50;1.00
31991;DHT22;18508;49.386;8.370;2023-01-29T01:45:19;-0.40;1.00
31991;DHT22;18508;49.386;8.370;2023-01-29T01:47:48;3.00;1.00
31991;DHT22;18508;49.386;8.370;2023-01-29T01:50:27;-0.50;1.00
31991;DHT22;18508;49.386;8.370;2023-01-29T01:53:03;-0.50;1.00
31991;DHT22;18508;49.386;8.370;2023-01-29T01:55:34;-0.20;1.00
31991;DHT22;18508;49.386;8.370;2023-01-29T01:58:24;-0.60;1.00
31991;DHT22;18508;49.386;8.370;2023-01-29T02:01:08;-0.60;1.00
31991;DHT22;18508;49.386;8.370;2023-01-29T02:03:42;-0.10;1.00
31991;DHT22;18508;49.386;8.370;2023-01-29T02:06:33;-0.40;1.00
31991;DHT22;18508;49.386;8.370;2023-01-29T02:09:28;-0.40;1.00
31991;DHT22;18508;49.386;8.370;2023-01-29T02:12:02;-0.20;14.60
31991;DHT22;18508;49.386;8.370;2023-01-29T02:14:31;-0.30;11.40
31991;DHT22;18508;49.386;8.370;2023-01-29T02:17:05;-0.70;25.30
31991;DHT22;18508;49.386;8.370;2023-01-29T02:19:49;-0.70;13.40
31991;DHT22;18508;49.386;8.370;2023-01-29T02:22:45;-0.50;1.00
31991;DHT22;18508;49.386;8.370;2023-01-29T02:25:37;-0.60;1.00
31991;DHT22;18508;49.386;8.370;2023-01-29T02:28:32;-0.60;1.00
31991;DHT22;18508;49.386;8.370;2023-01-29T02:31:08;-0.60;21.30
31991;DHT22;18508;49.386;8.370;2023-01-29T02:33:49;-0.70;11.80
31991;DHT22;18508;49.386;8.370;2023-01-29T02:36:36;-0.70;23.50
31991;DHT22;18508;49.386;8.370;2023-01-29T02:39:14;-0.80;31.30
31991;DHT22;18508;49.386;8.370;2023-01-29T02:41:47;-0.80;36.30
31991;DHT22;18508;49.386;8.370;2023-01-29T02:44:25;-0.90;40.60
31991;DHT22;18508;49.386;8.370;2023-01-29T02:47:01;-0.60;78.10
31991;DHT22;18508;49.386;8.370;2023-01-29T02:49:32;-1.00;56.20
31991;DHT22;18508;49.386;8.370;2023-01-29T02:52:06;-1.20;80.20
31991;DHT22;18508;49.386;8.370;2023-01-29T02:54:41;-1.20;99.90
31991;DHT22;18508;49.386;8.370;2023-01-29T02:57:17;-1.20;99.90
31991;DHT22;18508;49.386;8.370;2023-01-29T02:59:54;-1.10;99.90
31991;DHT22;18508;49.386;8.370;2023-01-29T03:02:28;-0.90;99.90
31991;DHT22;18508;49.386;8.370;2023-01-29T03:05:02;-2.30;98.20
31991;DHT22;18508;49.386;8.370;2023-01-29T03:07:36;-1.30;99.90
31991;DHT22;18508;49.386;8.370;2023-01-29T03:10:16;-1.30;99.90
31991;DHT22;18508;49.386;8.370;2023-01-29T03:12:52;-1.50;99.90
31991;DHT22;18508;49.386;8.370;2023-01-29T03:15:29;-1.40;99.90
31991;DHT22;18508;49.386;8.370;2023-01-29T03:18:07;-1.40;99.90
31991;DHT22;18508;49.386;8.370;2023-01-29T03:20:40;-1.40;99.90
31991;DHT22;18508;49.386;8.370;2023-01-29T03:23:18;-1.20;99.90
31991;DHT22;18508;49.386;8.370;2023-01-29T03:25:52;-1.50;99.90
31991;DHT22;18508;49.386;8.370;2023-01-29T03:28:40;-2.10;99.90
31991;DHT22;18508;49.386;8.370;2023-01-29T03:31:30;-1.80;99.90
31991;DHT22;18508;49.386;8.370;2023-01-29T03:34:20;-1.60;99.90
31991;DHT22;18508;49.386;8.370;2023-01-29T03:36:57;-1.70;99.90
31991;DHT22;18508;49.386;8.370;2023-01-29T03:39:27;-1.80;99.90
31991;DHT22;18508;49.386;8.370;2023-01-29T03:41:59;-1.80;99.90
31991;DHT22;18508;49.386;8.370;2023-01-29T03:44:36;-1.80;99.90
31991;DHT22;18508;49.386;8.370;2023-01-29T03:47:15;-1.80;99.90
31991;DHT22;18508;49.386;8.370;2023-01-29T03:49:53;-1.90;99.90
31991;DHT22;18508;49.386;8.370;2023-01-29T03:52:26;-1.90;99.90
31991;DHT22;18508;49.386;8.370;2023-01-29T03:54:59;-1.80;99.90
31991;DHT22;18508;49.386;8.370;2023-01-29T03:57:38;-1.90;99.90
31991;DHT22;18508;49.386;8.370;2023-01-29T04:00:12;-1.90;99.90
31991;DHT22;18508;49.386;8.370;2023-01-29T04:02:47;-2.10;99.90
31991;DHT22;18508;49.386;8.370;2023-01-29T04:05:21;-1.90;99.90
31991;DHT22;18508;49.386;8.370;2023-01-29T04:07:53;-1.90;99.90
31991;DHT22;18508;49.386;8.370;2023-01-29T04:10:25;-1.90;99.90
31991;DHT22;18508;49.386;8.370;2023-01-29T04:12:58;-1.90;99.90
31991;DHT22;18508;49.386;8.370;2023-01-29T04:15:30;-2.10;99.90
31991;DHT22;18508;49.386;8.370;2023-01-29T04:18:02;-1.90;99.90
31991;DHT22;18508;49.386;8.370;2023-01-29T04:22:59;-1.90;99.90
31991;DHT22;18508;49.386;8.370;2023-01-29T04:25:33;-1.90;99.90
31991;DHT22;18508;49.386;8.370;2023-01-29T04:28:06;-2.40;99.90
31991;DHT22;18508;49.386;8.370;2023-01-29T04:30:43;-1.70;99.90
31991;DHT22;18508;49.386;8.370;2023-01-29T04:33:24;-1.70;99.90
31991;DHT22;18508;49.386;8.370;2023-01-29T04:36:16;-1.30;99.90
31991;DHT22;18508;49.386;8.370;2023-01-29T04:38:56;-1.70;99.90
31991;DHT22;18508;49.386;8.370;2023-01-29T04:41:29;-1.60;99.90
31991;DHT22;18508;49.386;8.370;2023-01-29T04:44:07;-1.50;99.90
31991;DHT22;18508;49.386;8.370;2023-01-29T04:46:46;-1.10;99.90
31991;DHT22;18508;49.386;8.370;2023-01-29T04:49:31;-1.50;99.90
31991;DHT22;18508;49.386;8.370;2023-01-29T04:52:07;-1.60;99.90
31991;DHT22;18508;49.386;8.370;2023-01-29T04:54:49;-1.50;99.90
31991;DHT22;18508;49.386;8.370;2023-01-29T04:57:24;-1.60;99.90
31991;DHT22;18508;49.386;8.370;2023-01-29T04:59:56;-1.60;99.90
31991;DHT22;18508;49.386;8.370;2023-01-29T05:02:31;-2.20;99.90
31991;DHT22;18508;49.386;8.370;2023-01-29T05:05:12;-3.10;99.90
31991;DHT22;18508;49.386;8.370;2023-01-29T05:07:42;-1.80;99.90
31991;DHT22;18508;49.386;8.370;2023-01-29T05:10:15;-1.90;99.90
31991;DHT22;18508;49.386;8.370;2023-01-29T05:12:53;-1.90;99.90
31991;DHT22;18508;49.386;8.370;2023-01-29T05:15:30;-2.00;99.90
31991;DHT22;18508;49.386;8.370;2023-01-29T05:20:32;-2.00;99.90
31991;DHT22;18508;49.386;8.370;2023-01-29T05:23:01;-2.00;99.90
31991;DHT22;18508;49.386;8.370;2023-01-29T05:25:31;-1.70;99.90
31991;DHT22;18508;49.386;8.370;2023-01-29T05:28:01;-2.30;99.90
31991;DHT22;18508;49.386;8.370;2023-01-29T05:30:33;-2.10;99.90
31991;DHT22;18508;49.386;8.370;2023-01-29T05:33:02;-2.50;99.90
31991;DHT22;18508;49.386;8.370;2023-01-29T05:35:34;-2.20;99.90
31991;DHT22;18508;49.386;8.370;2023-01-29T05:40:36;-2.10;99.90
31991;DHT22;18508;49.386;8.370;2023-01-29T05:43:14;-2.20;99.90
31991;DHT22;18508;49.386;8.370;2023-01-29T05:45:51;-2.20;99.90
31991;DHT22;18508;49.386;8.370;2023-01-29T05:50:51;-2.10;99.90
31991;DHT22;18508;49.386;8.370;2023-01-29T05:53:20;-2.00;99.90
31991;DHT22;18508;49.386;8.370;2023-01-29T05:55:49;-2.00;99.90
31991;DHT22;18508;49.386;8.370;2023-01-29T06:23:19;-1.90;99.90
31991;DHT22;18508;49.386;8.370;2023-01-29T06:30:46;-2.10;99.90
31991;DHT22;18508;49.386;8.370;2023-01-29T06:33:16;-1.60;99.90
31991;DHT22;18508;49.386;8.370;2023-01-29T06:35:46;-1.10;99.90
31991;DHT22;18508;49.386;8.370;2023-01-29T06:38:21;-1.70;99.90
31991;DHT22;18508;49.386;8.370;2023-01-29T06:40:51;-1.50;99.90
31991;DHT22;18508;49.386;8.370;2023-01-29T06:43:22;-1.70;99.90
31991;DHT22;18508;49.386;8.370;2023-01-29T06:45:52;-1.60;99.90
31991;DHT22;18508;49.386;8.370;2023-01-29T06:53:25;-2.00;99.90
31991;DHT22;18508;49.386;8.370;2023-01-29T06:55:54;-1.80;99.90
31991;DHT22;18508;49.386;8.370;2023-01-29T07:01:02;-2.00;99.90
31991;DHT22;18508;49.386;8.370;2023-01-29T07:03:35;-1.90;99.90
31991;DHT22;18508;49.386;8.370;2023-01-29T07:08:39;-1.90;99.90
31991;DHT22;18508;49.386;8.370;2023-01-29T07:13:43;-1.80;99.90
31991;DHT22;18508;49.386;8.370;2023-01-29T07:16:12;-1.70;99.90
31991;DHT22;18508;49.386;8.370;2023-01-29T07:18:50;-1.70;99.90
31991;DHT22;18508;49.386;8.370;2023-01-29T07:31:40;-1.40;99.90
31991;DHT22;18508;49.386;8.370;2023-01-29T07:39:22;-1.30;99.90
31991;DHT22;18508;49.386;8.370;2023-01-29T07:41:51;-1.30;99.90
31991;DHT22;18508;49.386;8.370;2023-01-29T07:44:23;-1.40;99.90
31991;DHT22;18508;49.386;8.370;2023-01-29T08:14:42;-1.00;99.90
31991;DHT22;18508;49.386;8.370;2023-01-29T08:19:40;-0.40;99.90
31991;DHT22;18508;49.386;8.370;2023-01-29T08:22:23;-0.70;99.90
31991;DHT22;18508;49.386;8.370;2023-01-29T08:27:35;-0.30;99.90
31991;DHT22;18508;49.386;8.370;2023-01-29T08:30:04;-0.30;99.90
31991;DHT22;18508;49.386;8.370;2023-01-29T08:35:01;0.10;99.90
31991;DHT22;18508;49.386;8.370;2023-01-29T08:42:29;0.70;72.30
31991;DHT22;18508;49.386;8.370;2023-01-29T08:45:04;0.90;99.90
31991;DHT22;18508;49.386;8.370;2023-01-29T08:47:44;0.50;91.50
31991;DHT22;18508;49.386;8.370;2023-01-29T08:50:13;0.60;64.40
31991;DHT22;18508;49.386;8.370;2023-01-29T08:52:43;0.90;29.40
31991;DHT22;18508;49.386;8.370;2023-01-29T08:55:14;0.90;29.60
31991;DHT22;18508;49.386;8.370;2023-01-29T08:57:45;1.40;1.00
31991;DHT22;18508;49.386;8.370;2023-01-29T09:00:16;1.90;1.00
31991;DHT22;18508;49.386;8.370;2023-01-29T09:02:46;1.60;1.00
31991;DHT22;18508;49.386;8.370;2023-01-29T09:05:15;1.20;1.00
31991;DHT22;18508;49.386;8.370;2023-01-29T09:07:44;1.20;1.00
31991;DHT22;18508;49.386;8.370;2023-01-29T09:10:12;1.30;1.00
31991;DHT22;18508;49.386;8.370;2023-01-29T09:12:40;1.10;1.00
31991;DHT22;18508;49.386;8.370;2023-01-29T09:15:09;0.90;1.00
31991;DHT22;18508;49.386;8.370;2023-01-29T09:17:39;0.70;1.00
31991;DHT22;18508;49.386;8.370;2023-01-29T09:20:10;1.10;1.00
31991;DHT22;18508;49.386;8.370;2023-01-29T09:22:38;1.00;1.00
31991;DHT22;18508;49.386;8.370;2023-01-29T09:25:09;1.00;1.00
31991;DHT22;18508;49.386;8.370;2023-01-29T09:27:40;0.90;1.00
31991;DHT22;18508;49.386;8.370;2023-01-29T09:30:09;1.20;1.00
31991;DHT22;18508;49.386;8.370;2023-01-29T09:32:39;1.10;1.00
31991;DHT22;18508;49.386;8.370;2023-01-29T09:37:52;1.60;1.00
31991;DHT22;18508;49.386;8.370;2023-01-29T09:40:24;1.90;22.50
31991;DHT22;18508;49.386;8.370;2023-01-29T09:42:57;1.60;75.30
31991;DHT22;18508;49.386;8.370;2023-01-29T09:45:27;2.00;65.80
31991;DHT22;18508;49.386;8.370;2023-01-29T09:48:03;1.50;93.70
31991;DHT22;18508;49.386;8.370;2023-01-29T09:50:38;2.20;99.90
31991;DHT22;18508;49.386;8.370;2023-01-29T09:53:16;2.40;99.90
31991;DHT22;18508;49.386;8.370;2023-01-29T09:55:50;2.30;99.90
31991;DHT22;18508;49.386;8.370;2023-01-29T09:58:26;2.30;99.90
31991;DHT22;18508;49.386;8.370;2023-01-29T10:01:02;2.30;99.90
31991;DHT22;18508;49.386;8.370;2023-01-29T10:04:17;2.20;99.90
31991;DHT22;18508;49.386;8.370;2023-01-29T10:07:01;2.10;99.90
31991;DHT22;18508;49.386;8.370;2023-01-29T10:09:40;2.20;99.90
31991;DHT22;18508;49.386;8.370;2023-01-29T10:12:39;2.30;99.90
31991;DHT22;18508;49.386;8.370;2023-01-29T10:15:23;1.20;99.90
31991;DHT22;18508;49.386;8.370;2023-01-29T10:18:06;2.20;99.90
31991;DHT22;18508;49.386;8.370;2023-01-29T10:20:56;2.20;99.90
31991;DHT22;18508;49.386;8.370;2023-01-29T10:23:33;2.40;94.00
31991;DHT22;18508;49.386;8.370;2023-01-29T10:26:03;2.20;96.90
31991;DHT22;18508;49.386;8.370;2023-01-29T10:28:38;2.20;95.90
31991;DHT22;18508;49.386;8.370;2023-01-29T10:31:15;2.50;96.40
31991;DHT22;18508;49.386;8.370;2023-01-29T10:33:48;2.30;99.20
31991;DHT22;18508;49.386;8.370;2023-01-29T10:36:34;2.60;97.80
31991;DHT22;18508;49.386;8.370;2023-01-29T10:39:08;2.60;99.90
31991;DHT22;18508;49.386;8.370;2023-01-29T10:41:59;2.40;99.90
31991;DHT22;18508;49.386;8.370;2023-01-29T10:44:39;2.60;99.90
31991;DHT22;18508;49.386;8.370;2023-01-29T10:47:33;2.40;99.40
31991;DHT22;18508;49.386;8.370;2023-01-29T10:50:16;2.10;99.90
31991;DHT22;18508;49.386;8.370;2023-01-29T10:53:07;2.70;97.20
31991;DHT22;18508;49.386;8.370;2023-01-29T10:55:41;2.20;93.20
31991;DHT22;18508;49.386;8.370;2023-01-29T10:58:21;2.00;76.90
31991;DHT22;18508;49.386;8.370;2023-01-29T11:00:51;1.80;83.20
31991;DHT22;18508;49.386;8.370;2023-01-29T11:03:22;2.30;62.70
31991;DHT22;18508;49.386;8.370;2023-01-29T11:06:00;2.40;76.00
31991;DHT22;18508;49.386;8.370;2023-01-29T11:08:42;2.30;55.50
31991;DHT22;18508;49.386;8.370;2023-01-29T11:11:32;2.20;47.70
31991;DHT22;18508;49.386;8.370;2023-01-29T11:14:05;2.30;55.70
31991;DHT22;18508;49.386;8.370;2023-01-29T11:16:43;2.20;72.00
31991;DHT22;18508;49.386;8.370;2023-01-29T11:19:13;2.00;25.70
31991;DHT22;18508;49.386;8.370;2023-01-29T11:21:50;2.00;34.70
31991;DHT22;18508;49.386;8.370;2023-01-29T11:24:22;2.10;53.70
31991;DHT22;18508;49.386;8.370;2023-01-29T11:26:53;2.10;40.60
31991;DHT22;18508;49.386;8.370;2023-01-29T11:29:37;2.20;48.30
31991;DHT22;18508;49.386;8.370;2023-01-29T11:32:10;2.30;21.20
31991;DHT22;18508;49.386;8.370;2023-01-29T11:34:57;2.00;30.60
31991;DHT22;18508;49.386;8.370;2023-01-29T11:37:32;2.40;1.00
31991;DHT22;18508;49.386;8.370;2023-01-29T11:40:31;2.20;7.40
31991;DHT22;18508;49.386;8.370;2023-01-29T11:43:28;2.00;1.00
31991;DHT22;18508;49.386;8.370;2023-01-29T11:45:59;1.80;2.00
31991;DHT22;18508;49.386;8.370;2023-01-29T11:48:39;2.00;1.00
31991;DHT22;18508;49.386;8.370;2023-01-29T11:51:11;2.40;1.00
31991;DHT22;18508;49.386;8.370;2023-01-29T11:53:51;2.30;1.00
31991;DHT22;18508;49.386;8.370;2023-01-29T11:56:27;2.30;1.00
31991;DHT22;18508;49.386;8.370;2023-01-29T11:58:57;2.40;1.00
31991;DHT22;18508;49.386;8.370;2023-01-29T12:01:32;2.40;1.00
31991;DHT22;18508;49.386;8.370;2023-01-29T12:04:03;2.40;1.00
31991;DHT22;18508;49.386;8.370;2023-01-29T12:06:41;2.90;1.00
31991;DHT22;18508;49.386;8.370;2023-01-29T12:09:17;3.00;1.00
31991;DHT22;18508;49.386;8.370;2023-01-29T12:11:51;2.90;1.00
31991;DHT22;18508;49.386;8.370;2023-01-29T12:14:27;3.00;3.40
31991;DHT22;18508;49.386;8.370;2023-01-29T12:17:02;3.00;1.00
31991;DHT22;18508;49.386;8.370;2023-01-29T12:19:35;2.70;15.80
31991;DHT22;18508;49.386;8.370;2023-01-29T12:22:13;3.50;15.40
31991;DHT22;18508;49.386;8.370;2023-01-29T12:24:48;3.30;40.50
31991;DHT22;18508;49.386;8.370;2023-01-29T12:27:23;3.10;99.90
31991;DHT22;18508;49.386;8.370;2023-01-29T12:29:56;3.00;99.90
31991;DHT22;18508;49.386;8.370;2023-01-29T12:32:47;3.70;99.90
31991;DHT22;18508;49.386;8.370;2023-01-29T12:35:20;3.80;99.90
31991;DHT22;18508;49.386;8.370;2023-01-29T12:37:55;3.50;99.90
31991;DHT22;18508;49.386;8.370;2023-01-29T12:40:29;3.60;99.90
31991;DHT22;18508;49.386;8.370;2023-01-29T12:43:05;3.60;99.90
31991;DHT22;18508;49.386;8.370;2023-01-29T12:45:38;3.80;99.90
31991;DHT22;18508;49.386;8.370;2023-01-29T12:48:12;4.30;99.90
31991;DHT22;18508;49.386;8.370;2023-01-29T12:53:24;4.10;99.90
31991;DHT22;18508;49.386;8.370;2023-01-29T12:55:56;4.30;99.90
31991;DHT22;18508;49.386;8.370;2023-01-29T12:58:28;4.00;99.90
31991;DHT22;18508;49.386;8.370;2023-01-29T13:01:03;3.90;99.90
31991;DHT22;18508;49.386;8.370;2023-01-29T13:03:44;4.30;99.90
31991;DHT22;18508;49.386;8.370;2023-01-29T13:06:16;4.10;99.90
31991;DHT22;18508;49.386;8.370;2023-01-29T13:08:47;4.30;99.90
31991;DHT22;18508;49.386;8.370;2023-01-29T13:11:20;4.40;99.90
31991;DHT22;18508;49.386;8.370;2023-01-29T13:13:58;4.00;99.90
31991;DHT22;18508;49.386;8.370;2023-01-29T13:16:39;3.70;99.90
31991;DHT22;18508;49.386;8.370;2023-01-29T13:19:18;3.90;99.90
31991;DHT22;18508;49.386;8.370;2023-01-29T13:21:52;4.10;99.90
31991;DHT22;18508;49.386;8.370;2023-01-29T13:24:23;3.90;99.90
31991;DHT22;18508;49.386;8.370;2023-01-29T13:26:53;3.90;99.90
31991;DHT22;18508;49.386;8.370;2023-01-29T13:29:24;4.00;99.90
31991;DHT22;18508;49.386;8.370;2023-01-29T13:31:58;3.90;99.90
31991;DHT22;18508;49.386;8.370;2023-01-29T13:34:29;3.70;99.90
31991;DHT22;18508;49.386;8.370;2023-01-29T13:37:00;4.10;99.90
31991;DHT22;18508;49.386;8.370;2023-01-29T13:39:31;3.90;99.90
31991;DHT22;18508;49.386;8.370;2023-01-29T13:42:03;3.80;99.90
31991;DHT22;18508;49.386;8.370;2023-01-29T13:44:46;3.70;99.90
31991;DHT22;18508;49.386;8.370;2023-01-29T13:47:22;3.80;99.90
31991;DHT22;18508;49.386;8.370;2023-01-29T13:49:56;3.60;99.90
31991;DHT22;18508;49.386;8.370;2023-01-29T13:52:37;3.80;99.90
31991;DHT22;18508;49.386;8.370;2023-01-29T13:55:25;3.90;99.90
31991;DHT22;18508;49.386;8.370;2023-01-29T13:57:58;3.90;99.90
31991;DHT22;18508;49.386;8.370;2023-01-29T14:00:58;4.30;99.90
31991;DHT22;18508;49.386;8.370;2023-01-29T14:03:56;4.00;99.90
31991;DHT22;18508;49.386;8.370;2023-01-29T14:06:45;4.00;99.90
31991;DHT22;18508;49.386;8.370;2023-01-29T14:09:58;4.10;99.90
31991;DHT22;18508;49.386;8.370;2023-01-29T14:12:31;4.00;99.90
31991;DHT22;18508;49.386;8.370;2023-01-29T14:15:13;3.80;99.90
31991;DHT22;18508;49.386;8.370;2023-01-29T14:20:54;3.30;99.90
31991;DHT22;18508;49.386;8.370;2023-01-29T14:23:40;3.60;99.90
31991;DHT22;18508;49.386;8.370;2023-01-29T14:26:29;3.30;99.90
31991;DHT22;18508;49.386;8.370;2023-01-29T14:29:02;3.30;99.90
31991;DHT22;18508;49.386;8.370;2023-01-29T14:31:38;3.20;98.00
31991;DHT22;18508;49.386;8.370;2023-01-29T14:34:15;3.10;89.50
31991;DHT22;18508;49.386;8.370;2023-01-29T14:36:53;2.90;83.10
31991;DHT22;18508;49.386;8.370;2023-01-29T14:39:32;3.20;53.10
31991;DHT22;18508;49.386;8.370;2023-01-29T14:42:13;2.60;30.00
31991;DHT22;18508;49.386;8.370;2023-01-29T14:45:07;3.20;30.40
31991;DHT22;18508;49.386;8.370;2023-01-29T14:48:01;2.80;19.20
31991;DHT22;18508;49.386;8.370;2023-01-29T14:50:44;3.00;17.90
31991;DHT22;18508;49.386;8.370;2023-01-29T14:56:12;3.10;7.50
31991;DHT22;18508;49.386;8.370;2023-01-29T14:58:44;2.90;1.00
31991;DHT22;18508;49.386;8.370;2023-01-29T15:01:21;3.10;1.00
31991;DHT22;18508;49.386;8.370;2023-01-29T15:03:51;3.00;1.00
31991;DHT22;18508;49.386;8.370;2023-01-29T15:06:28;2.80;1.00
31991;DHT22;18508;49.386;8.370;2023-01-29T15:09:06;2.90;1.00
31991;DHT22;18508;49.386;8.370;2023-01-29T15:11:48;2.80;1.00
31991;DHT22;18508;49.386;8.370;2023-01-29T15:14:25;3.30;1.00
31991;DHT22;18508;49.386;8.370;2023-01-29T15:17:17;2.50;1.00
31991;DHT22;18508;49.386;8.370;2023-01-29T15:19:47;3.00;1.00
31991;DHT22;18508;49.386;8.370;2023-01-29T15:22:17;2.70;1.00
31991;DHT22;18508;49.386;8.370;2023-01-29T15:25:04;2.70;1.00
31991;DHT22;18508;49.386;8.370;2023-01-29T15:27:34;2.90;1.00
31991;DHT22;18508;49.386;8.370;2023-01-29T15:30:04;2.30;1.00
31991;DHT22;18508;49.386;8.370;2023-01-29T15:32:35;2.50;1.00
31991;DHT22;18508;49.386;8.370;2023-01-29T15:35:07;2.70;1.00
31991;DHT22;18508;49.386;8.370;2023-01-29T15:37:36;2.40;1.00
31991;DHT22;18508;49.386;8.370;2023-01-29T15:40:14;2.10;1.00
31991;DHT22;18508;49.386;8.370;2023-01-29T15:42:47;2.80;1.00
31991;DHT22;18508;49.386;8.370;2023-01-29T15:45:26;2.40;1.00
31991;DHT22;18508;49.386;8.370;2023-01-29T15:48:01;2.60;1.00
31991;DHT22;18508;49.386;8.370;2023-01-29T15:50:34;1.90;1.00
31991;DHT22;18508;49.386;8.370;2023-01-29T15:53:06;2.20;1.00
31991;DHT22;18508;49.386;8.370;2023-01-29T15:55:38;2.30;1.00
31991;DHT22;18508;49.386;8.370;2023-01-29T15:58:12;2.20;1.00
31991;DHT22;18508;49.386;8.370;2023-01-29T16:00:47;2.20;1.00
31991;DHT22;18508;49.386;8.370;2023-01-29T16:03:20;1.90;1.00
31991;DHT22;18508;49.386;8.370;2023-01-29T16:05:49;1.80;1.00
31991;DHT22;18508;49.386;8.370;2023-01-29T16:08:20;1.90;1.00
31991;DHT22;18508;49.386;8.370;2023-01-29T16:10:54;1.90;1.00
31991;DHT22;18508;49.386;8.370;2023-01-29T16:13:24;2.10;1.00
31991;DHT22;18508;49.386;8.370;2023-01-29T16:15:55;1.80;1.00
31991;DHT22;18508;49.386;8.370;2023-01-29T16:18:28;1.80;1.00
31991;DHT22;18508;49.386;8.370;2023-01-29T16:20:57;1.90;1.00
31991;DHT22;18508;49.386;8.370;2023-01-29T16:23:30;1.80;11.10
31991;DHT22;18508;49.386;8.370;2023-01-29T16:26:07;1.80;11.80
31991;DHT22;18508;49.386;8.370;2023-01-29T16:28:42;1.40;1.00
31991;DHT22;18508;49.386;8.370;2023-01-29T16:31:12;1.30;5.80
31991;DHT22;18508;49.386;8.370;2023-01-29T16:33:43;1.20;26.90
31991;DHT22;18508;49.386;8.370;2023-01-29T16:36:17;1.40;54.10
31991;DHT22;18508;49.386;8.370;2023-01-29T16:38:48;0.90;80.90
31991;DHT22;18508;49.386;8.370;2023-01-29T16:41:28;0.90;99.10
31991;DHT22;18508;49.386;8.370;2023-01-29T16:44:01;1.20;99.90
31991;DHT22;18508;49.386;8.370;2023-01-29T16:46:34;0.70;99.90
31991;DHT22;18508;49.386;8.370;2023-01-29T16:49:41;0.80;99.90
31991;DHT22;18508;49.386;8.370;2023-01-29T16:52:19;0.90;99.90
31991;DHT22;18508;49.386;8.370;2023-01-29T16:54:50;0.90;99.90
31991;DHT22;18508;49.386;8.370;2023-01-29T16:57:22;0.80;99.90
31991;DHT22;18508;49.386;8.370;2023-01-29T16:59:53;0.70;99.90
31991;DHT22;18508;49.386;8.370;2023-01-29T17:02:25;0.80;99.90
31991;DHT22;18508;49.386;8.370;2023-01-29T17:04:57;0.40;99.90
31991;DHT22;18508;49.386;8.370;2023-01-29T17:07:26;0.90;99.90
31991;DHT22;18508;49.386;8.370;2023-01-29T17:09:57;0.40;99.90
31991;DHT22;18508;49.386;8.370;2023-01-29T17:12:29;0.50;99.90
31991;DHT22;18508;49.386;8.370;2023-01-29T17:14:59;0.60;99.90
31991;DHT22;18508;49.386;8.370;2023-01-29T17:17:29;0.60;99.90
31991;DHT22;18508;49.386;8.370;2023-01-29T17:19:58;0.20;99.90
31991;DHT22;18508;49.386;8.370;2023-01-29T17:24:57;0.30;99.90
31991;DHT22;18508;49.386;8.370;2023-01-29T17:27:26;0.10;99.90
31991;DHT22;18508;49.386;8.370;2023-01-29T17:29:57;0.10;99.90
31991;DHT22;18508;49.386;8.370;2023-01-29T17:32:26;0.40;99.90
31991;DHT22;18508;49.386;8.370;2023-01-29T17:35:11;0.20;99.90
31991;DHT22;18508;49.386;8.370;2023-01-29T17:37:40;0.00;99.90
31991;DHT22;18508;49.386;8.370;2023-01-29T17:40:19;0.30;99.90
31991;DHT22;18508;49.386;8.370;2023-01-29T17:42:50;-0.30;99.90
31991;DHT22;18508;49.386;8.370;2023-01-29T17:47:47;-0.30;99.90
31991;DHT22;18508;49.386;8.370;2023-01-29T17:50:20;0.00;99.90
31991;DHT22;18508;49.386;8.370;2023-01-29T17:52:49;-0.20;99.90
31991;DHT22;18508;49.386;8.370;2023-01-29T17:55:19;-0.40;99.90
31991;DHT22;18508;49.386;8.370;2023-01-29T17:57:47;-0.30;99.90
31991;DHT22;18508;49.386;8.370;2023-01-29T18:00:18;-0.10;99.90
31991;DHT22;18508;49.386;8.370;2023-01-29T18:05:16;-0.30;99.90
31991;DHT22;18508;49.386;8.370;2023-01-29T18:07:46;-0.20;99.90
31991;DHT22;18508;49.386;8.370;2023-01-29T18:10:19;-0.20;99.90
31991;DHT22;18508;49.386;8.370;2023-01-29T18:12:49;-0.40;99.90
31991;DHT22;18508;49.386;8.370;2023-01-29T18:15:19;-0.10;99.90
31991;DHT22;18508;49.386;8.370;2023-01-29T18:17:47;-0.30;99.90
31991;DHT22;18508;49.386;8.370;2023-01-29T18:20:20;0.30;99.90
31991;DHT22;18508;49.386;8.370;2023-01-29T18:22:49;-0.10;99.90
31991;DHT22;18508;49.386;8.370;2023-01-29T18:25:18;-0.40;99.90
31991;DHT22;18508;49.386;8.370;2023-01-29T18:27:46;0.10;99.90
31991;DHT22;18508;49.386;8.370;2023-01-29T18:30:15;-0.50;99.90
31991;DHT22;18508;49.386;8.370;2023-01-29T18:32:46;-0.20;99.90
31991;DHT22;18508;49.386;8.370;2023-01-29T18:35:16;-0.30;99.90
31991;DHT22;18508;49.386;8.370;2023-01-29T18:37:44;-0.50;99.90
31991;DHT22;18508;49.386;8.370;2023-01-29T18:40:15;-0.60;99.90
31991;DHT22;18508;49.386;8.370;2023-01-29T18:42:47;-0.90;99.90
31991;DHT22;18508;49.386;8.370;2023-01-29T18:45:15;-0.70;99.90
31991;DHT22;18508;49.386;8.370;2023-01-29T18:47:47;-0.70;99.90
31991;DHT22;18508;49.386;8.370;2023-01-29T18:50:15;-0.30;99.90
31991;DHT22;18508;49.386;8.370;2023-01-29T18:52:45;-0.50;99.90
31991;DHT22;18508;49.386;8.370;2023-01-29T18:55:13;-0.70;99.90
31991;DHT22;18508;49.386;8.370;2023-01-29T18:57:43;-0.60;99.90
31991;DHT22;18508;49.386;8.370;2023-01-29T19:00:31;-0.60;99.90